sensor_id;sensor_type;location;lat;lon;timestamp;P1;durP1;ratioP1;P2;durP2;ratioP2
9142;SDS011;54072;47.410;8.446;2023-07-02T00:01:08;2.03;;;1.90;;
9142;SDS011;54072;47.410;8.446;2023-07-02T00:03:37;3.73;;;2.00;;
9142;SDS011;54072;47.410;8.446;2023-07-02T00:06:04;2.30;;;1.80;;
9142;SDS011;54072;47.410;8.446;2023-07-02T00:08:32;2.30;;;2.03;;
9142;SDS011;54072;47.410;8.446;2023-07-02T00:11:00;1.90;;;1.80;;
9142;SDS011;54072;47.410;8.446;2023-07-02T00:13:27;2.03;;;1.93;;
9142;SDS011;54072;47.410;8.446;2023-07-02T00:15:56;2.23;;;1.60;;
9142;SDS011;54072;47.410;8.446;2023-07-02T00:18:24;2.10;;;1.67;;
9142;SDS011;54072;47.410;8.446;2023-07-02T00:21:00;2.33;;;2.00;;
9142;SDS011;54072;47.410;8.446;2023-07-02T00:23:28;1.80;;;1.70;;
9142;SDS011;54072;47.410;8.446;2023-07-02T00:25:56;1.90;;;1.80;;
9142;SDS011;54072;47.410;8.446;2023-07-02T00:28:23;2.80;;;2.23;;
9142;SDS011;54072;47.410;8.446;2023-07-02T00:30:51;2.63;;;2.00;;
9142;SDS011;54072;47.410;8.446;2023-07-02T00:33:20;2.13;;;2.03;;
9142;SDS011;54072;47.410;8.446;2023-07-02T00:35:47;2.10;;;2.00;;
9142;SDS011;54072;47.410;8.446;2023-07-02T00:38:15;2.50;;;2.30;;
9142;SDS011;54072;47.410;8.446;2023-07-02T00:40:42;2.20;;;2.10;;
9142;SDS011;54072;47.410;8.446;2023-07-02T00:43:10;2.37;;;2.17;;
9142;SDS011;54072;47.410;8.446;2023-07-02T00:45:39;3.87;;;2.70;;
9142;SDS011;54072;47.410;8.446;2023-07-02T00:48:07;2.60;;;2.40;;
9142;SDS011;54072;47.410;8.446;2023-07-02T00:50:35;2.57;;;2.37;;
9142;SDS011;54072;47.410;8.446;2023-07-02T00:53:03;4.33;;;2.37;;
9142;SDS011;54072;47.410;8.446;2023-07-02T00:55:31;4.50;;;2.37;;
9142;SDS011;54072;47.410;8.446;2023-07-02T00:57:58;3.07;;;2.67;;
9142;SDS011;54072;47.410;8.446;2023-07-02T01:00:26;3.73;;;2.67;;
9142;SDS011;54072;47.410;8.446;2023-07-02T01:02:55;2.60;;;2.40;;
9142;SDS011;54072;47.410;8.446;2023-07-02T01:05:25;3.27;;;2.67;;
9142;SDS011;54072;47.410;8.446;2023-07-02T01:08:00;3.43;;;2.40;;
9142;SDS011;54072;47.410;8.446;2023-07-02T01:10:27;2.47;;;2.27;;
9142;SDS011;54072;47.410;8.446;2023-07-02T01:12:55;2.70;;;2.50;;
9142;SDS011;54072;47.410;8.446;2023-07-02T01:15:22;3.00;;;2.43;;
9142;SDS011;54072;47.410;8.446;2023-07-02T01:17:50;2.57;;;2.37;;
9142;SDS011;54072;47.410;8.446;2023-07-02T01:20:20;2.60;;;2.40;;
9142;SDS011;54072;47.410;8.446;2023-07-02T01:22:48;3.77;;;2.57;;
9142;SDS011;54072;47.410;8.446;2023-07-02T01:25:17;2.83;;;2.63;;
9142;SDS011;54072;47.410;8.446;2023-07-02T01:27:48;3.43;;;3.03;;
9142;SDS011;54072;47.410;8.446;2023-07-02T01:30:16;4.33;;;3.10;;
9142;SDS011;54072;47.410;8.446;2023-07-02T01:32:43;4.83;;;3.50;;
9142;SDS011;54072;47.410;8.446;2023-07-02T01:35:11;3.43;;;3.13;;
9142;SDS011;54072;47.410;8.446;2023-07-02T01:37:40;3.30;;;3.00;;
9142;SDS011;54072;47.410;8.446;2023-07-02T01:40:07;3.70;;;3.10;;
9142;SDS011;54072;47.410;8.446;2023-07-02T01:42:35;4.33;;;3.13;;
9142;SDS011;54072;47.410;8.446;2023-07-02T01:45:03;4.47;;;3.30;;
9142;SDS011;54072;47.410;8.446;2023-07-02T01:47:31;3.60;;;3.30;;
9142;SDS011;54072;47.410;8.446;2023-07-02T01:49:59;3.93;;;3.53;;
9142;SDS011;54072;47.410;8.446;2023-07-02T01:52:26;4.97;;;3.30;;
9142;SDS011;54072;47.410;8.446;2023-07-02T01:54:57;3.63;;;3.33;;
9142;SDS011;54072;47.410;8.446;2023-07-02T01:57:24;3.80;;;3.50;;
9142;SDS011;54072;47.410;8.446;2023-07-02T01:59:52;5.17;;;3.30;;
9142;SDS011;54072;47.410;8.446;2023-07-02T02:02:19;3.93;;;3.60;;
9142;SDS011;54072;47.410;8.446;2023-07-02T02:04:47;3.80;;;3.50;;
9142;SDS011;54072;47.410;8.446;2023-07-02T02:07:14;5.27;;;3.57;;
9142;SDS011;54072;47.410;8.446;2023-07-02T02:09:42;4.10;;;3.27;;
9142;SDS011;54072;47.410;8.446;2023-07-02T02:12:11;3.40;;;3.10;;
9142;SDS011;54072;47.410;8.446;2023-07-02T02:14:40;3.87;;;3.47;;
9142;SDS011;54072;47.410;8.446;2023-07-02T02:17:08;4.83;;;3.40;;
9142;SDS011;54072;47.410;8.446;2023-07-02T02:19:35;4.10;;;3.70;;
9142;SDS011;54072;47.410;8.446;2023-07-02T02:22:03;3.90;;;3.60;;
9142;SDS011;54072;47.410;8.446;2023-07-02T02:24:31;3.47;;;3.17;;
9142;SDS011;54072;47.410;8.446;2023-07-02T02:26:58;4.07;;;3.63;;
9142;SDS011;54072;47.410;8.446;2023-07-02T02:29:27;4.33;;;3.90;;
9142;SDS011;54072;47.410;8.446;2023-07-02T02:31:55;4.40;;;3.87;;
9142;SDS011;54072;47.410;8.446;2023-07-02T02:34:22;5.20;;;4.00;;
9142;SDS011;54072;47.410;8.446;2023-07-02T02:36:50;5.83;;;4.20;;
9142;SDS011;54072;47.410;8.446;2023-07-02T02:39:17;6.00;;;4.27;;
9142;SDS011;54072;47.410;8.446;2023-07-02T02:41:45;4.80;;;3.70;;
9142;SDS011;54072;47.410;8.446;2023-07-02T02:44:12;5.80;;;4.40;;
9142;SDS011;54072;47.410;8.446;2023-07-02T02:46:41;5.20;;;4.43;;
9142;SDS011;54072;47.410;8.446;2023-07-02T02:49:09;4.47;;;4.03;;
9142;SDS011;54072;47.410;8.446;2023-07-02T02:51:36;6.20;;;4.40;;
9142;SDS011;54072;47.410;8.446;2023-07-02T02:54:04;4.90;;;4.20;;
9142;SDS011;54072;47.410;8.446;2023-07-02T02:56:31;6.50;;;4.77;;
9142;SDS011;54072;47.410;8.446;2023-07-02T02:58:59;5.27;;;4.40;;
9142;SDS011;54072;47.410;8.446;2023-07-02T03:01:27;5.83;;;4.67;;
9142;SDS011;54072;47.410;8.446;2023-07-02T03:03:58;4.70;;;4.30;;
9142;SDS011;54072;47.410;8.446;2023-07-02T03:06:26;5.57;;;4.30;;
9142;SDS011;54072;47.410;8.446;2023-07-02T03:08:54;4.97;;;4.40;;
9142;SDS011;54072;47.410;8.446;2023-07-02T03:11:21;5.40;;;4.80;;
9142;SDS011;54072;47.410;8.446;2023-07-02T03:13:49;5.57;;;4.17;;
9142;SDS011;54072;47.410;8.446;2023-07-02T03:16:16;5.20;;;4.30;;
9142;SDS011;54072;47.410;8.446;2023-07-02T03:18:44;5.00;;;4.20;;
9142;SDS011;54072;47.410;8.446;2023-07-02T03:21:13;5.30;;;4.20;;
9142;SDS011;54072;47.410;8.446;2023-07-02T03:23:40;6.67;;;4.63;;
9142;SDS011;54072;47.410;8.446;2023-07-02T03:26:08;7.03;;;4.80;;
9142;SDS011;54072;47.410;8.446;2023-07-02T03:28:35;6.87;;;5.70;;
9142;SDS011;54072;47.410;8.446;2023-07-02T03:31:03;6.90;;;5.40;;
9142;SDS011;54072;47.410;8.446;2023-07-02T03:33:31;10.67;;;5.50;;
9142;SDS011;54072;47.410;8.446;2023-07-02T03:35:59;11.87;;;6.63;;
9142;SDS011;54072;47.410;8.446;2023-07-02T03:38:28;7.90;;;6.07;;
9142;SDS011;54072;47.410;8.446;2023-07-02T03:40:55;9.13;;;6.70;;
9142;SDS011;54072;47.410;8.446;2023-07-02T03:43:23;9.90;;;6.70;;
9142;SDS011;54072;47.410;8.446;2023-07-02T03:45:52;11.13;;;7.53;;
9142;SDS011;54072;47.410;8.446;2023-07-02T03:48:20;10.37;;;7.30;;
9142;SDS011;54072;47.410;8.446;2023-07-02T03:50:47;10.90;;;7.37;;
9142;SDS011;54072;47.410;8.446;2023-07-02T03:53:15;12.57;;;7.07;;
9142;SDS011;54072;47.410;8.446;2023-07-02T03:55:44;12.23;;;7.43;;
9142;SDS011;54072;47.410;8.446;2023-07-02T03:58:11;12.43;;;7.43;;
9142;SDS011;54072;47.410;8.446;2023-07-02T04:00:39;8.83;;;7.00;;
9142;SDS011;54072;47.410;8.446;2023-07-02T04:03:07;10.93;;;6.90;;
9142;SDS011;54072;47.410;8.446;2023-07-02T04:05:35;11.33;;;7.37;;
9142;SDS011;54072;47.410;8.446;2023-07-02T04:08:03;10.47;;;7.20;;
9142;SDS011;54072;47.410;8.446;2023-07-02T04:10:30;9.23;;;6.93;;
9142;SDS011;54072;47.410;8.446;2023-07-02T04:12:59;10.10;;;7.00;;
9142;SDS011;54072;47.410;8.446;2023-07-02T04:15:27;9.60;;;6.80;;
9142;SDS011;54072;47.410;8.446;2023-07-02T04:17:54;14.13;;;7.27;;
9142;SDS011;54072;47.410;8.446;2023-07-02T04:20:22;10.70;;;7.10;;
9142;SDS011;54072;47.410;8.446;2023-07-02T04:22:50;11.77;;;6.73;;
9142;SDS011;54072;47.410;8.446;2023-07-02T04:25:17;11.03;;;7.20;;
9142;SDS011;54072;47.410;8.446;2023-07-02T04:27:45;10.87;;;6.93;;
9142;SDS011;54072;47.410;8.446;2023-07-02T04:30:14;10.13;;;7.27;;
9142;SDS011;54072;47.410;8.446;2023-07-02T04:32:42;12.63;;;7.10;;
9142;SDS011;54072;47.410;8.446;2023-07-02T04:35:10;10.80;;;7.03;;
9142;SDS011;54072;47.410;8.446;2023-07-02T04:37:38;10.93;;;6.70;;
9142;SDS011;54072;47.410;8.446;2023-07-02T04:40:06;9.13;;;6.77;;
9142;SDS011;54072;47.410;8.446;2023-07-02T04:42:35;8.60;;;6.50;;
9142;SDS011;54072;47.410;8.446;2023-07-02T04:45:04;7.40;;;6.10;;
9142;SDS011;54072;47.410;8.446;2023-07-02T04:47:33;7.83;;;5.77;;
9142;SDS011;54072;47.410;8.446;2023-07-02T04:50:00;9.67;;;6.23;;
9142;SDS011;54072;47.410;8.446;2023-07-02T04:52:28;6.57;;;5.27;;
9142;SDS011;54072;47.410;8.446;2023-07-02T04:54:55;6.93;;;4.83;;
9142;SDS011;54072;47.410;8.446;2023-07-02T04:57:23;5.80;;;5.17;;
9142;SDS011;54072;47.410;8.446;2023-07-02T04:59:50;7.67;;;5.10;;
9142;SDS011;54072;47.410;8.446;2023-07-02T05:02:18;5.50;;;4.70;;
9142;SDS011;54072;47.410;8.446;2023-07-02T05:04:47;5.93;;;4.83;;
9142;SDS011;54072;47.410;8.446;2023-07-02T05:07:15;7.10;;;4.90;;
9142;SDS011;54072;47.410;8.446;2023-07-02T05:09:43;6.03;;;4.70;;
9142;SDS011;54072;47.410;8.446;2023-07-02T05:12:10;6.63;;;5.23;;
9142;SDS011;54072;47.410;8.446;2023-07-02T05:14:38;7.90;;;5.10;;
9142;SDS011;54072;47.410;8.446;2023-07-02T05:17:05;5.33;;;4.80;;
9142;SDS011;54072;47.410;8.446;2023-07-02T05:19:33;6.03;;;4.90;;
9142;SDS011;54072;47.410;8.446;2023-07-02T05:22:02;5.83;;;4.70;;
9142;SDS011;54072;47.410;8.446;2023-07-02T05:24:29;5.50;;;4.43;;
9142;SDS011;54072;47.410;8.446;2023-07-02T05:26:57;5.03;;;4.53;;
9142;SDS011;54072;47.410;8.446;2023-07-02T05:29:25;5.37;;;4.87;;
9142;SDS011;54072;47.410;8.446;2023-07-02T05:31:52;6.27;;;4.90;;
9142;SDS011;54072;47.410;8.446;2023-07-02T05:34:20;6.53;;;4.97;;
9142;SDS011;54072;47.410;8.446;2023-07-02T05:36:48;6.03;;;4.93;;
9142;SDS011;54072;47.410;8.446;2023-07-02T05:39:17;6.33;;;5.20;;
9142;SDS011;54072;47.410;8.446;2023-07-02T05:41:44;6.73;;;5.20;;
9142;SDS011;54072;47.410;8.446;2023-07-02T05:44:12;5.70;;;4.80;;
9142;SDS011;54072;47.410;8.446;2023-07-02T05:46:39;7.33;;;5.40;;
9142;SDS011;54072;47.410;8.446;2023-07-02T05:49:07;7.43;;;5.17;;
9142;SDS011;54072;47.410;8.446;2023-07-02T05:51:35;6.77;;;5.43;;
9142;SDS011;54072;47.410;8.446;2023-07-02T05:54:03;7.43;;;5.13;;
9142;SDS011;54072;47.410;8.446;2023-07-02T05:56:31;7.40;;;5.43;;
9142;SDS011;54072;47.410;8.446;2023-07-02T05:58:59;5.90;;;5.30;;
9142;SDS011;54072;47.410;8.446;2023-07-02T06:01:26;7.47;;;5.90;;
9142;SDS011;54072;47.410;8.446;2023-07-02T06:03:54;9.10;;;6.33;;
9142;SDS011;54072;47.410;8.446;2023-07-02T06:06:22;8.47;;;6.30;;
9142;SDS011;54072;47.410;8.446;2023-07-02T06:08:50;7.87;;;6.30;;
9142;SDS011;54072;47.410;8.446;2023-07-02T06:11:18;8.20;;;6.20;;
9142;SDS011;54072;47.410;8.446;2023-07-02T06:13:47;10.77;;;7.13;;
9142;SDS011;54072;47.410;8.446;2023-07-02T06:16:14;10.90;;;6.97;;
9142;SDS011;54072;47.410;8.446;2023-07-02T06:18:42;11.63;;;7.00;;
9142;SDS011;54072;47.410;8.446;2023-07-02T06:21:09;12.33;;;6.90;;
9142;SDS011;54072;47.410;8.446;2023-07-02T06:23:41;10.73;;;6.93;;
9142;SDS011;54072;47.410;8.446;2023-07-02T06:26:08;9.97;;;7.40;;
9142;SDS011;54072;47.410;8.446;2023-07-02T06:28:36;11.47;;;7.43;;
9142;SDS011;54072;47.410;8.446;2023-07-02T06:31:05;9.27;;;7.30;;
9142;SDS011;54072;47.410;8.446;2023-07-02T06:33:33;12.77;;;8.00;;
9142;SDS011;54072;47.410;8.446;2023-07-02T06:36:00;9.97;;;7.70;;
9142;SDS011;54072;47.410;8.446;2023-07-02T06:38:28;15.80;;;8.73;;
9142;SDS011;54072;47.410;8.446;2023-07-02T06:40:55;12.60;;;8.80;;
9142;SDS011;54072;47.410;8.446;2023-07-02T06:43:23;15.13;;;10.13;;
9142;SDS011;54072;47.410;8.446;2023-07-02T06:45:51;15.53;;;9.47;;
9142;SDS011;54072;47.410;8.446;2023-07-02T06:48:27;16.77;;;10.40;;
9142;SDS011;54072;47.410;8.446;2023-07-02T06:50:55;12.33;;;9.97;;
9142;SDS011;54072;47.410;8.446;2023-07-02T06:53:23;14.80;;;9.73;;
9142;SDS011;54072;47.410;8.446;2023-07-02T06:55:50;19.30;;;11.10;;
9142;SDS011;54072;47.410;8.446;2023-07-02T06:58:18;15.17;;;10.27;;
9142;SDS011;54072;47.410;8.446;2023-07-02T07:00:45;18.47;;;10.40;;
9142;SDS011;54072;47.410;8.446;2023-07-02T07:03:13;16.33;;;11.00;;
9142;SDS011;54072;47.410;8.446;2023-07-02T07:05:42;20.10;;;10.60;;
9142;SDS011;54072;47.410;8.446;2023-07-02T07:08:10;16.00;;;10.40;;
9142;SDS011;54072;47.410;8.446;2023-07-02T07:10:37;16.07;;;11.63;;
9142;SDS011;54072;47.410;8.446;2023-07-02T07:13:05;17.33;;;10.90;;
9142;SDS011;54072;47.410;8.446;2023-07-02T07:15:33;18.13;;;11.23;;
9142;SDS011;54072;47.410;8.446;2023-07-02T07:18:01;17.27;;;11.27;;
9142;SDS011;54072;47.410;8.446;2023-07-02T07:20:29;16.67;;;11.23;;
9142;SDS011;54072;47.410;8.446;2023-07-02T07:22:58;21.50;;;11.57;;
9142;SDS011;54072;47.410;8.446;2023-07-02T07:25:26;20.10;;;12.37;;
9142;SDS011;54072;47.410;8.446;2023-07-02T07:27:53;16.23;;;11.20;;
9142;SDS011;54072;47.410;8.446;2023-07-02T07:30:21;18.87;;;12.20;;
9142;SDS011;54072;47.410;8.446;2023-07-02T07:32:49;18.47;;;11.27;;
9142;SDS011;54072;47.410;8.446;2023-07-02T07:35:17;15.80;;;10.77;;
9142;SDS011;54072;47.410;8.446;2023-07-02T07:37:45;20.43;;;12.40;;
9142;SDS011;54072;47.410;8.446;2023-07-02T07:40:14;18.00;;;11.13;;
9142;SDS011;54072;47.410;8.446;2023-07-02T07:42:42;18.57;;;12.17;;
9142;SDS011;54072;47.410;8.446;2023-07-02T07:45:10;19.23;;;11.80;;
9142;SDS011;54072;47.410;8.446;2023-07-02T07:47:37;20.13;;;11.60;;
9142;SDS011;54072;47.410;8.446;2023-07-02T07:50:05;20.13;;;12.00;;
9142;SDS011;54072;47.410;8.446;2023-07-02T07:52:37;19.13;;;11.83;;
9142;SDS011;54072;47.410;8.446;2023-07-02T07:55:05;17.83;;;11.80;;
9142;SDS011;54072;47.410;8.446;2023-07-02T07:57:34;19.57;;;12.13;;
9142;SDS011;54072;47.410;8.446;2023-07-02T08:00:03;19.70;;;12.37;;
9142;SDS011;54072;47.410;8.446;2023-07-02T08:02:32;18.63;;;12.43;;
9142;SDS011;54072;47.410;8.446;2023-07-02T08:05:00;18.07;;;11.10;;
9142;SDS011;54072;47.410;8.446;2023-07-02T08:07:28;17.67;;;11.67;;
9142;SDS011;54072;47.410;8.446;2023-07-02T08:09:56;19.83;;;12.03;;
9142;SDS011;54072;47.410;8.446;2023-07-02T08:12:23;17.87;;;11.37;;
9142;SDS011;54072;47.410;8.446;2023-07-02T08:14:54;20.83;;;12.53;;
9142;SDS011;54072;47.410;8.446;2023-07-02T08:17:22;20.63;;;11.93;;
9142;SDS011;54072;47.410;8.446;2023-07-02T08:19:49;19.90;;;12.00;;
9142;SDS011;54072;47.410;8.446;2023-07-02T08:22:17;20.53;;;11.20;;
9142;SDS011;54072;47.410;8.446;2023-07-02T08:24:44;20.40;;;12.23;;
9142;SDS011;54072;47.410;8.446;2023-07-02T08:27:15;18.07;;;11.93;;
9142;SDS011;54072;47.410;8.446;2023-07-02T08:29:45;19.57;;;12.43;;
9142;SDS011;54072;47.410;8.446;2023-07-02T08:32:14;19.13;;;11.97;;
9142;SDS011;54072;47.410;8.446;2023-07-02T08:34:42;18.13;;;12.90;;
9142;SDS011;54072;47.410;8.446;2023-07-02T08:37:10;17.50;;;12.03;;
9142;SDS011;54072;47.410;8.446;2023-07-02T08:39:37;16.47;;;12.17;;
9142;SDS011;54072;47.410;8.446;2023-07-02T08:42:06;19.43;;;12.17;;
9142;SDS011;54072;47.410;8.446;2023-07-02T08:44:34;17.87;;;12.33;;
9142;SDS011;54072;47.410;8.446;2023-07-02T08:47:02;18.07;;;11.63;;
9142;SDS011;54072;47.410;8.446;2023-07-02T08:49:31;20.00;;;13.47;;
9142;SDS011;54072;47.410;8.446;2023-07-02T08:51:58;16.57;;;12.37;;
9142;SDS011;54072;47.410;8.446;2023-07-02T08:54:26;19.67;;;12.70;;
9142;SDS011;54072;47.410;8.446;2023-07-02T08:56:53;19.47;;;13.03;;
9142;SDS011;54072;47.410;8.446;2023-07-02T08:59:22;20.43;;;12.70;;
9142;SDS011;54072;47.410;8.446;2023-07-02T09:01:50;19.50;;;12.90;;
9142;SDS011;54072;47.410;8.446;2023-07-02T09:04:18;21.10;;;13.40;;
9142;SDS011;54072;47.410;8.446;2023-07-02T09:06:48;21.57;;;14.20;;
9142;SDS011;54072;47.410;8.446;2023-07-02T09:09:16;19.10;;;13.00;;
9142;SDS011;54072;47.410;8.446;2023-07-02T09:11:47;19.63;;;13.70;;
9142;SDS011;54072;47.410;8.446;2023-07-02T09:14:26;21.83;;;13.97;;
9142;SDS011;54072;47.410;8.446;2023-07-02T09:17:03;19.83;;;14.43;;
9142;SDS011;54072;47.410;8.446;2023-07-02T09:19:31;23.03;;;14.63;;
9142;SDS011;54072;47.410;8.446;2023-07-02T09:22:00;21.10;;;14.17;;
9142;SDS011;54072;47.410;8.446;2023-07-02T09:24:28;20.73;;;13.70;;
9142;SDS011;54072;47.410;8.446;2023-07-02T09:26:57;23.53;;;14.50;;
9142;SDS011;54072;47.410;8.446;2023-07-02T09:29:26;20.87;;;15.13;;
9142;SDS011;54072;47.410;8.446;2023-07-02T09:31:55;22.63;;;14.80;;
9142;SDS011;54072;47.410;8.446;2023-07-02T09:34:26;23.57;;;15.93;;
9142;SDS011;54072;47.410;8.446;2023-07-02T09:36:54;23.80;;;14.63;;
9142;SDS011;54072;47.410;8.446;2023-07-02T09:39:26;22.48;;;15.00;;
9142;SDS011;54072;47.410;8.446;2023-07-02T09:41:55;22.73;;;15.55;;
9142;SDS011;54072;47.410;8.446;2023-07-02T09:44:25;24.63;;;15.63;;
9142;SDS011;54072;47.410;8.446;2023-07-02T09:46:55;26.70;;;15.68;;
9142;SDS011;54072;47.410;8.446;2023-07-02T09:49:23;21.13;;;14.98;;
9142;SDS011;54072;47.410;8.446;2023-07-02T09:51:51;22.33;;;14.95;;
9142;SDS011;54072;47.410;8.446;2023-07-02T09:54:19;21.02;;;14.75;;
9142;SDS011;54072;47.410;8.446;2023-07-02T09:56:48;21.40;;;14.93;;
9142;SDS011;54072;47.410;8.446;2023-07-02T09:59:16;21.42;;;13.82;;
9142;SDS011;54072;47.410;8.446;2023-07-02T10:01:43;20.20;;;13.65;;
9142;SDS011;54072;47.410;8.446;2023-07-02T10:04:12;18.77;;;13.43;;
9142;SDS011;54072;47.410;8.446;2023-07-02T10:06:46;20.10;;;13.27;;
9142;SDS011;54072;47.410;8.446;2023-07-02T10:09:14;21.67;;;14.50;;
9142;SDS011;54072;47.410;8.446;2023-07-02T10:11:42;19.70;;;13.88;;
9142;SDS011;54072;47.410;8.446;2023-07-02T10:14:11;20.40;;;14.10;;
9142;SDS011;54072;47.410;8.446;2023-07-02T10:16:48;16.70;;;12.95;;
9142;SDS011;54072;47.410;8.446;2023-07-02T10:19:16;18.67;;;13.13;;
9142;SDS011;54072;47.410;8.446;2023-07-02T10:21:45;18.92;;;13.18;;
9142;SDS011;54072;47.410;8.446;2023-07-02T10:24:14;19.10;;;13.27;;
9142;SDS011;54072;47.410;8.446;2023-07-02T10:26:53;18.85;;;13.15;;
9142;SDS011;54072;47.410;8.446;2023-07-02T10:29:23;19.25;;;13.15;;
9142;SDS011;54072;47.410;8.446;2023-07-02T10:31:51;16.75;;;12.60;;
9142;SDS011;54072;47.410;8.446;2023-07-02T10:37:02;17.52;;;12.48;;
9142;SDS011;54072;47.410;8.446;2023-07-02T10:39:30;14.95;;;11.88;;
9142;SDS011;54072;47.410;8.446;2023-07-02T10:42:03;16.83;;;12.52;;
9142;SDS011;54072;47.410;8.446;2023-07-02T10:44:33;17.38;;;12.38;;
9142;SDS011;54072;47.410;8.446;2023-07-02T10:47:00;16.17;;;12.70;;
9142;SDS011;54072;47.410;8.446;2023-07-02T10:49:31;15.98;;;12.52;;
9142;SDS011;54072;47.410;8.446;2023-07-02T10:51:59;16.95;;;12.55;;
9142;SDS011;54072;47.410;8.446;2023-07-02T10:54:37;15.85;;;11.55;;
9142;SDS011;54072;47.410;8.446;2023-07-02T10:57:09;16.27;;;11.68;;
9142;SDS011;54072;47.410;8.446;2023-07-02T10:59:39;14.05;;;11.23;;
9142;SDS011;54072;47.410;8.446;2023-07-02T11:02:07;15.35;;;11.80;;
9142;SDS011;54072;47.410;8.446;2023-07-02T11:04:36;14.65;;;11.65;;
9142;SDS011;54072;47.410;8.446;2023-07-02T11:07:04;15.73;;;11.38;;
9142;SDS011;54072;47.410;8.446;2023-07-02T11:09:33;17.88;;;11.88;;
9142;SDS011;54072;47.410;8.446;2023-07-02T11:12:01;12.45;;;10.48;;
9142;SDS011;54072;47.410;8.446;2023-07-02T11:14:29;14.40;;;10.90;;
9142;SDS011;54072;47.410;8.446;2023-07-02T11:16:58;13.35;;;10.98;;
9142;SDS011;54072;47.410;8.446;2023-07-02T11:19:28;14.70;;;10.50;;
9142;SDS011;54072;47.410;8.446;2023-07-02T11:21:56;13.38;;;10.50;;
9142;SDS011;54072;47.410;8.446;2023-07-02T11:24:27;12.60;;;10.32;;
9142;SDS011;54072;47.410;8.446;2023-07-02T11:26:55;13.32;;;10.60;;
9142;SDS011;54072;47.410;8.446;2023-07-02T11:29:23;13.60;;;10.13;;
9142;SDS011;54072;47.410;8.446;2023-07-02T11:31:51;15.02;;;10.65;;
9142;SDS011;54072;47.410;8.446;2023-07-02T11:34:20;12.52;;;10.35;;
9142;SDS011;54072;47.410;8.446;2023-07-02T11:36:50;14.60;;;10.60;;
9142;SDS011;54072;47.410;8.446;2023-07-02T11:39:20;12.80;;;10.50;;
9142;SDS011;54072;47.410;8.446;2023-07-02T11:41:47;16.27;;;10.30;;
9142;SDS011;54072;47.410;8.446;2023-07-02T11:44:16;14.00;;;10.23;;
9142;SDS011;54072;47.410;8.446;2023-07-02T11:46:44;12.20;;;9.55;;
9142;SDS011;54072;47.410;8.446;2023-07-02T11:49:13;13.77;;;9.63;;
9142;SDS011;54072;47.410;8.446;2023-07-02T11:51:42;11.60;;;9.38;;
9142;SDS011;54072;47.410;8.446;2023-07-02T11:54:14;13.10;;;9.63;;
9142;SDS011;54072;47.410;8.446;2023-07-02T11:56:42;12.65;;;9.82;;
9142;SDS011;54072;47.410;8.446;2023-07-02T11:59:10;12.38;;;9.55;;
9142;SDS011;54072;47.410;8.446;2023-07-02T12:01:37;11.90;;;10.02;;
9142;SDS011;54072;47.410;8.446;2023-07-02T12:04:05;11.55;;;9.38;;
9142;SDS011;54072;47.410;8.446;2023-07-02T12:06:33;11.00;;;9.40;;
9142;SDS011;54072;47.410;8.446;2023-07-02T12:09:03;11.75;;;9.43;;
9142;SDS011;54072;47.410;8.446;2023-07-02T12:11:30;11.60;;;9.60;;
9142;SDS011;54072;47.410;8.446;2023-07-02T12:13:58;10.60;;;8.48;;
9142;SDS011;54072;47.410;8.446;2023-07-02T12:16:25;10.63;;;9.35;;
9142;SDS011;54072;47.410;8.446;2023-07-02T12:18:53;10.45;;;9.13;;
9142;SDS011;54072;47.410;8.446;2023-07-02T12:21:20;12.77;;;9.68;;
9142;SDS011;54072;47.410;8.446;2023-07-02T12:23:48;13.35;;;9.68;;
9142;SDS011;54072;47.410;8.446;2023-07-02T12:26:17;12.38;;;9.52;;
9142;SDS011;54072;47.410;8.446;2023-07-02T12:28:44;12.02;;;10.23;;
9142;SDS011;54072;47.410;8.446;2023-07-02T12:31:12;13.30;;;9.57;;
9142;SDS011;54072;47.410;8.446;2023-07-02T12:33:40;11.10;;;9.73;;
9142;SDS011;54072;47.410;8.446;2023-07-02T12:36:07;11.30;;;9.60;;
9142;SDS011;54072;47.410;8.446;2023-07-02T12:38:36;12.48;;;9.85;;
9142;SDS011;54072;47.410;8.446;2023-07-02T12:41:04;11.60;;;9.88;;
9142;SDS011;54072;47.410;8.446;2023-07-02T12:43:33;12.88;;;10.43;;
9142;SDS011;54072;47.410;8.446;2023-07-02T12:46:00;11.50;;;9.60;;
9142;SDS011;54072;47.410;8.446;2023-07-02T12:48:28;12.95;;;9.98;;
9142;SDS011;54072;47.410;8.446;2023-07-02T12:50:56;14.73;;;11.32;;
9142;SDS011;54072;47.410;8.446;2023-07-02T12:53:24;12.93;;;10.93;;
9142;SDS011;54072;47.410;8.446;2023-07-02T12:55:52;15.50;;;11.45;;
9142;SDS011;54072;47.410;8.446;2023-07-02T12:58:19;14.15;;;11.18;;
9142;SDS011;54072;47.410;8.446;2023-07-02T13:00:48;12.73;;;11.10;;
9142;SDS011;54072;47.410;8.446;2023-07-02T13:03:16;14.02;;;10.93;;
9142;SDS011;54072;47.410;8.446;2023-07-02T13:05:46;12.32;;;10.30;;
9142;SDS011;54072;47.410;8.446;2023-07-02T13:08:14;14.10;;;10.63;;
9142;SDS011;54072;47.410;8.446;2023-07-02T13:10:42;14.43;;;10.80;;
9142;SDS011;54072;47.410;8.446;2023-07-02T13:13:09;12.93;;;10.88;;
9142;SDS011;54072;47.410;8.446;2023-07-02T13:15:48;14.27;;;11.75;;
9142;SDS011;54072;47.410;8.446;2023-07-02T13:18:16;15.40;;;11.95;;
9142;SDS011;54072;47.410;8.446;2023-07-02T13:20:43;12.65;;;10.57;;
9142;SDS011;54072;47.410;8.446;2023-07-02T13:23:11;12.45;;;10.02;;
9142;SDS011;54072;47.410;8.446;2023-07-02T13:25:38;12.95;;;10.35;;
9142;SDS011;54072;47.410;8.446;2023-07-02T13:28:06;12.98;;;10.80;;
9142;SDS011;54072;47.410;8.446;2023-07-02T13:30:34;13.38;;;10.13;;
9142;SDS011;54072;47.410;8.446;2023-07-02T13:33:03;13.77;;;10.73;;
9142;SDS011;54072;47.410;8.446;2023-07-02T13:35:30;15.27;;;11.15;;
9142;SDS011;54072;47.410;8.446;2023-07-02T13:37:58;16.20;;;11.02;;
9142;SDS011;54072;47.410;8.446;2023-07-02T13:40:25;13.85;;;10.70;;
9142;SDS011;54072;47.410;8.446;2023-07-02T13:42:53;14.68;;;10.88;;
9142;SDS011;54072;47.410;8.446;2023-07-02T13:45:22;13.48;;;10.40;;
9142;SDS011;54072;47.410;8.446;2023-07-02T13:47:49;12.40;;;10.55;;
9142;SDS011;54072;47.410;8.446;2023-07-02T13:50:18;12.65;;;10.63;;
9142;SDS011;54072;47.410;8.446;2023-07-02T13:52:46;13.30;;;11.40;;
9142;SDS011;54072;47.410;8.446;2023-07-02T13:55:15;14.68;;;11.75;;
9142;SDS011;54072;47.410;8.446;2023-07-02T13:57:43;13.73;;;11.52;;
9142;SDS011;54072;47.410;8.446;2023-07-02T14:00:12;15.85;;;11.55;;
9142;SDS011;54072;47.410;8.446;2023-07-02T14:02:40;14.00;;;11.38;;
9142;SDS011;54072;47.410;8.446;2023-07-02T14:05:07;13.52;;;10.38;;
9142;SDS011;54072;47.410;8.446;2023-07-02T14:07:35;14.20;;;10.70;;
9142;SDS011;54072;47.410;8.446;2023-07-02T14:10:03;13.43;;;11.05;;
9142;SDS011;54072;47.410;8.446;2023-07-02T14:12:31;12.60;;;10.40;;
9142;SDS011;54072;47.410;8.446;2023-07-02T14:14:58;14.45;;;10.98;;
9142;SDS011;54072;47.410;8.446;2023-07-02T14:17:27;13.43;;;10.30;;
9142;SDS011;54072;47.410;8.446;2023-07-02T14:19:55;13.57;;;10.57;;
9142;SDS011;54072;47.410;8.446;2023-07-02T14:22:22;14.57;;;10.35;;
9142;SDS011;54072;47.410;8.446;2023-07-02T14:24:50;13.30;;;10.13;;
9142;SDS011;54072;47.410;8.446;2023-07-02T14:27:18;12.70;;;10.13;;
9142;SDS011;54072;47.410;8.446;2023-07-02T14:29:45;12.13;;;9.38;;
9142;SDS011;54072;47.410;8.446;2023-07-02T14:32:14;11.88;;;9.13;;
9142;SDS011;54072;47.410;8.446;2023-07-02T14:34:43;12.52;;;9.77;;
9142;SDS011;54072;47.410;8.446;2023-07-02T14:37:10;9.65;;;8.30;;
9142;SDS011;54072;47.410;8.446;2023-07-02T14:39:38;11.80;;;9.43;;
9142;SDS011;54072;47.410;8.446;2023-07-02T14:42:07;10.38;;;9.00;;
9142;SDS011;54072;47.410;8.446;2023-07-02T14:44:34;12.05;;;9.13;;
9142;SDS011;54072;47.410;8.446;2023-07-02T14:47:02;11.85;;;9.23;;
9142;SDS011;54072;47.410;8.446;2023-07-02T14:49:30;11.15;;;8.23;;
9142;SDS011;54072;47.410;8.446;2023-07-02T14:51:59;9.77;;;8.32;;
9142;SDS011;54072;47.410;8.446;2023-07-02T14:54:27;11.13;;;7.95;;